sensor_id;sensor_type;location;lat;lon;timestamp;P1;durP1;ratioP1;P2;durP2;ratioP2
55710;SDS011;41612;51.994;5.880;2022-10-23T00:00:56;11.48;;;6.38;;
55710;SDS011;41612;51.994;5.880;2022-10-23T00:03:22;10.43;;;6.13;;
55710;SDS011;41612;51.994;5.880;2022-10-23T00:05:48;9.00;;;5.03;;
55710;SDS011;41612;51.994;5.880;2022-10-23T00:08:13;8.70;;;5.38;;
55710;SDS011;41612;51.994;5.880;2022-10-23T00:10:40;9.32;;;5.70;;
55710;SDS011;41612;51.994;5.880;2022-10-23T00:13:07;11.65;;;5.88;;
55710;SDS011;41612;51.994;5.880;2022-10-23T00:15:34;7.65;;;6.25;;
55710;SDS011;41612;51.994;5.880;2022-10-23T00:18:00;8.43;;;6.03;;
55710;SDS011;41612;51.994;5.880;2022-10-23T00:20:29;12.90;;;7.07;;
55710;SDS011;41612;51.994;5.880;2022-10-23T00:22:54;10.57;;;6.18;;
55710;SDS011;41612;51.994;5.880;2022-10-23T00:25:20;14.82;;;7.30;;
55710;SDS011;41612;51.994;5.880;2022-10-23T00:27:46;16.02;;;8.05;;
55710;SDS011;41612;51.994;5.880;2022-10-23T00:30:11;12.27;;;6.70;;
55710;SDS011;41612;51.994;5.880;2022-10-23T00:32:37;10.98;;;6.18;;
55710;SDS011;41612;51.994;5.880;2022-10-23T00:35:03;12.00;;;7.53;;
55710;SDS011;41612;51.994;5.880;2022-10-23T00:37:30;13.55;;;7.90;;
55710;SDS011;41612;51.994;5.880;2022-10-23T00:39:55;15.75;;;8.02;;
55710;SDS011;41612;51.994;5.880;2022-10-23T00:42:22;15.30;;;7.40;;
55710;SDS011;41612;51.994;5.880;2022-10-23T00:47:14;11.82;;;6.50;;
55710;SDS011;41612;51.994;5.880;2022-10-23T00:49:40;12.85;;;7.50;;
55710;SDS011;41612;51.994;5.880;2022-10-23T00:52:07;12.25;;;7.45;;
55710;SDS011;41612;51.994;5.880;2022-10-23T00:54:38;9.85;;;6.70;;
55710;SDS011;41612;51.994;5.880;2022-10-23T00:57:06;14.63;;;8.80;;
55710;SDS011;41612;51.994;5.880;2022-10-23T00:59:38;7.85;;;5.38;;
55710;SDS011;41612;51.994;5.880;2022-10-23T01:02:05;7.93;;;5.45;;
55710;SDS011;41612;51.994;5.880;2022-10-23T01:04:30;11.23;;;6.20;;
55710;SDS011;41612;51.994;5.880;2022-10-23T01:12:39;14.80;;;6.88;;
55710;SDS011;41612;51.994;5.880;2022-10-23T01:15:30;12.13;;;5.68;;
55710;SDS011;41612;51.994;5.880;2022-10-23T01:20:40;12.80;;;7.55;;
55710;SDS011;41612;51.994;5.880;2022-10-23T01:23:16;12.93;;;7.68;;
55710;SDS011;41612;51.994;5.880;2022-10-23T01:28:23;10.10;;;6.07;;
55710;SDS011;41612;51.994;5.880;2022-10-23T01:33:23;8.07;;;5.47;;
55710;SDS011;41612;51.994;5.880;2022-10-23T01:36:03;9.02;;;6.65;;
55710;SDS011;41612;51.994;5.880;2022-10-23T01:38:34;9.88;;;6.13;;
55710;SDS011;41612;51.994;5.880;2022-10-23T01:41:17;13.30;;;6.47;;
55710;SDS011;41612;51.994;5.880;2022-10-23T01:43:54;21.85;;;8.60;;
55710;SDS011;41612;51.994;5.880;2022-10-23T01:46:27;11.18;;;7.43;;
55710;SDS011;41612;51.994;5.880;2022-10-23T01:48:56;11.07;;;6.80;;
55710;SDS011;41612;51.994;5.880;2022-10-23T01:51:24;12.80;;;6.80;;
55710;SDS011;41612;51.994;5.880;2022-10-23T01:53:55;10.15;;;6.55;;
55710;SDS011;41612;51.994;5.880;2022-10-23T01:56:34;10.68;;;6.03;;
55710;SDS011;41612;51.994;5.880;2022-10-23T01:59:03;14.55;;;8.15;;
55710;SDS011;41612;51.994;5.880;2022-10-23T02:01:36;13.70;;;6.70;;
55710;SDS011;41612;51.994;5.880;2022-10-23T02:04:06;11.15;;;6.10;;
55710;SDS011;41612;51.994;5.880;2022-10-23T02:06:34;10.20;;;7.10;;
55710;SDS011;41612;51.994;5.880;2022-10-23T02:09:00;13.60;;;7.53;;
55710;SDS011;41612;51.994;5.880;2022-10-23T02:11:26;17.60;;;9.60;;
55710;SDS011;41612;51.994;5.880;2022-10-23T02:14:02;17.67;;;9.43;;
55710;SDS011;41612;51.994;5.880;2022-10-23T02:24:28;13.75;;;9.27;;
55710;SDS011;41612;51.994;5.880;2022-10-23T02:27:16;12.05;;;8.43;;
55710;SDS011;41612;51.994;5.880;2022-10-23T02:30:05;13.13;;;7.15;;
55710;SDS011;41612;51.994;5.880;2022-10-23T02:32:34;13.32;;;7.05;;
55710;SDS011;41612;51.994;5.880;2022-10-23T02:35:03;17.58;;;8.68;;
55710;SDS011;41612;51.994;5.880;2022-10-23T02:37:29;17.10;;;9.40;;
55710;SDS011;41612;51.994;5.880;2022-10-23T02:39:55;12.75;;;8.43;;
55710;SDS011;41612;51.994;5.880;2022-10-23T02:44:51;17.13;;;10.13;;
55710;SDS011;41612;51.994;5.880;2022-10-23T02:50:25;14.95;;;10.68;;
55710;SDS011;41612;51.994;5.880;2022-10-23T02:53:15;13.77;;;9.73;;
55710;SDS011;41612;51.994;5.880;2022-10-23T02:55:51;8.23;;;6.22;;
55710;SDS011;41612;51.994;5.880;2022-10-23T02:58:49;18.05;;;10.57;;
55710;SDS011;41612;51.994;5.880;2022-10-23T03:01:28;11.80;;;8.57;;
55710;SDS011;41612;51.994;5.880;2022-10-23T03:04:24;14.13;;;10.00;;
55710;SDS011;41612;51.994;5.880;2022-10-23T03:06:52;17.38;;;9.32;;
55710;SDS011;41612;51.994;5.880;2022-10-23T03:09:18;14.70;;;8.77;;
55710;SDS011;41612;51.994;5.880;2022-10-23T03:11:44;16.75;;;9.52;;
55710;SDS011;41612;51.994;5.880;2022-10-23T03:14:11;11.82;;;8.88;;
55710;SDS011;41612;51.994;5.880;2022-10-23T03:16:38;16.80;;;9.60;;
55710;SDS011;41612;51.994;5.880;2022-10-23T03:19:03;13.80;;;10.00;;
55710;SDS011;41612;51.994;5.880;2022-10-23T03:21:29;11.88;;;8.60;;
55710;SDS011;41612;51.994;5.880;2022-10-23T03:23:55;16.52;;;10.15;;
55710;SDS011;41612;51.994;5.880;2022-10-23T03:26:28;20.20;;;10.43;;
55710;SDS011;41612;51.994;5.880;2022-10-23T03:28:54;15.45;;;10.25;;
55710;SDS011;41612;51.994;5.880;2022-10-23T03:31:22;20.90;;;10.30;;
55710;SDS011;41612;51.994;5.880;2022-10-23T03:33:53;13.68;;;9.13;;
55710;SDS011;41612;51.994;5.880;2022-10-23T03:36:20;11.52;;;7.13;;
55710;SDS011;41612;51.994;5.880;2022-10-23T03:38:45;15.63;;;8.98;;
55710;SDS011;41612;51.994;5.880;2022-10-23T03:41:11;16.05;;;8.60;;
55710;SDS011;41612;51.994;5.880;2022-10-23T03:43:37;11.25;;;7.63;;
55710;SDS011;41612;51.994;5.880;2022-10-23T03:46:04;8.23;;;5.50;;
55710;SDS011;41612;51.994;5.880;2022-10-23T03:48:33;11.65;;;8.15;;
55710;SDS011;41612;51.994;5.880;2022-10-23T03:51:02;15.02;;;8.30;;
55710;SDS011;41612;51.994;5.880;2022-10-23T03:53:31;8.95;;;7.03;;
55710;SDS011;41612;51.994;5.880;2022-10-23T03:56:00;13.48;;;7.22;;
55710;SDS011;41612;51.994;5.880;2022-10-23T03:58:26;11.13;;;6.53;;
55710;SDS011;41612;51.994;5.880;2022-10-23T04:00:51;12.48;;;7.93;;
55710;SDS011;41612;51.994;5.880;2022-10-23T04:03:17;10.32;;;7.13;;
55710;SDS011;41612;51.994;5.880;2022-10-23T04:05:43;10.05;;;8.45;;
55710;SDS011;41612;51.994;5.880;2022-10-23T04:08:08;14.55;;;9.00;;
55710;SDS011;41612;51.994;5.880;2022-10-23T04:10:35;10.38;;;8.52;;
55710;SDS011;41612;51.994;5.880;2022-10-23T04:13:00;13.02;;;8.05;;
55710;SDS011;41612;51.994;5.880;2022-10-23T04:15:29;7.55;;;5.88;;
55710;SDS011;41612;51.994;5.880;2022-10-23T04:17:55;5.78;;;4.07;;
55710;SDS011;41612;51.994;5.880;2022-10-23T04:20:20;6.15;;;4.88;;
55710;SDS011;41612;51.994;5.880;2022-10-23T04:22:46;8.20;;;4.13;;
55710;SDS011;41612;51.994;5.880;2022-10-23T04:25:12;8.30;;;4.13;;
55710;SDS011;41612;51.994;5.880;2022-10-23T04:27:38;7.18;;;5.30;;
55710;SDS011;41612;51.994;5.880;2022-10-23T04:30:03;11.38;;;6.18;;
55710;SDS011;41612;51.994;5.880;2022-10-23T04:32:30;8.90;;;5.50;;
55710;SDS011;41612;51.994;5.880;2022-10-23T04:34:56;8.70;;;6.18;;
55710;SDS011;41612;51.994;5.880;2022-10-23T04:37:22;15.23;;;8.60;;
55710;SDS011;41612;51.994;5.880;2022-10-23T04:39:47;13.50;;;7.30;;
55710;SDS011;41612;51.994;5.880;2022-10-23T04:42:13;13.20;;;7.88;;
55710;SDS011;41612;51.994;5.880;2022-10-23T04:44:38;8.57;;;6.03;;
55710;SDS011;41612;51.994;5.880;2022-10-23T04:47:04;8.65;;;5.40;;
55710;SDS011;41612;51.994;5.880;2022-10-23T04:49:34;12.70;;;5.75;;
55710;SDS011;41612;51.994;5.880;2022-10-23T04:52:29;10.40;;;6.28;;
55710;SDS011;41612;51.994;5.880;2022-10-23T04:55:23;12.88;;;7.32;;
55710;SDS011;41612;51.994;5.880;2022-10-23T04:58:04;10.90;;;6.72;;
55710;SDS011;41612;51.994;5.880;2022-10-23T05:00:30;12.70;;;5.80;;
55710;SDS011;41612;51.994;5.880;2022-10-23T05:02:56;15.93;;;7.13;;
55710;SDS011;41612;51.994;5.880;2022-10-23T05:05:22;12.18;;;5.65;;
55710;SDS011;41612;51.994;5.880;2022-10-23T05:08:05;11.45;;;6.80;;
55710;SDS011;41612;51.994;5.880;2022-10-23T05:11:03;16.85;;;7.28;;
55710;SDS011;41612;51.994;5.880;2022-10-23T05:13:33;10.70;;;7.28;;
55710;SDS011;41612;51.994;5.880;2022-10-23T05:15:59;8.77;;;5.97;;
55710;SDS011;41612;51.994;5.880;2022-10-23T05:18:26;9.85;;;5.30;;
55710;SDS011;41612;51.994;5.880;2022-10-23T05:21:28;7.88;;;4.43;;
55710;SDS011;41612;51.994;5.880;2022-10-23T05:23:50;8.15;;;5.68;;
55710;SDS011;41612;51.994;5.880;2022-10-23T05:26:16;11.43;;;4.80;;
55710;SDS011;41612;51.994;5.880;2022-10-23T05:28:44;7.13;;;4.47;;
55710;SDS011;41612;51.994;5.880;2022-10-23T05:31:15;7.55;;;3.42;;
55710;SDS011;41612;51.994;5.880;2022-10-23T05:33:47;7.43;;;5.07;;
55710;SDS011;41612;51.994;5.880;2022-10-23T05:36:13;7.45;;;4.80;;
55710;SDS011;41612;51.994;5.880;2022-10-23T05:38:41;11.10;;;5.63;;
55710;SDS011;41612;51.994;5.880;2022-10-23T05:41:15;10.52;;;5.47;;
55710;SDS011;41612;51.994;5.880;2022-10-23T05:43:41;12.07;;;6.05;;
55710;SDS011;41612;51.994;5.880;2022-10-23T05:46:20;9.55;;;4.82;;
55710;SDS011;41612;51.994;5.880;2022-10-23T05:49:07;8.25;;;4.85;;
55710;SDS011;41612;51.994;5.880;2022-10-23T05:51:53;8.68;;;5.65;;
55710;SDS011;41612;51.994;5.880;2022-10-23T05:54:33;7.88;;;3.67;;
55710;SDS011;41612;51.994;5.880;2022-10-23T05:57:20;8.82;;;5.25;;
55710;SDS011;41612;51.994;5.880;2022-10-23T05:59:48;9.43;;;6.07;;
55710;SDS011;41612;51.994;5.880;2022-10-23T06:02:37;10.45;;;5.75;;
55710;SDS011;41612;51.994;5.880;2022-10-23T06:05:11;12.32;;;5.65;;
55710;SDS011;41612;51.994;5.880;2022-10-23T06:07:50;9.55;;;5.72;;
55710;SDS011;41612;51.994;5.880;2022-10-23T06:10:17;15.73;;;7.75;;
55710;SDS011;41612;51.994;5.880;2022-10-23T06:12:45;7.70;;;4.35;;
55710;SDS011;41612;51.994;5.880;2022-10-23T06:15:14;13.77;;;6.70;;
55710;SDS011;41612;51.994;5.880;2022-10-23T06:18:00;11.25;;;6.68;;
55710;SDS011;41612;51.994;5.880;2022-10-23T06:20:29;9.52;;;6.18;;
55710;SDS011;41612;51.994;5.880;2022-10-23T06:23:07;6.75;;;4.80;;
55710;SDS011;41612;51.994;5.880;2022-10-23T06:25:54;9.60;;;6.07;;
55710;SDS011;41612;51.994;5.880;2022-10-23T06:28:29;14.93;;;6.90;;
55710;SDS011;41612;51.994;5.880;2022-10-23T06:30:54;9.77;;;4.70;;
55710;SDS011;41612;51.994;5.880;2022-10-23T06:33:20;10.70;;;6.07;;
55710;SDS011;41612;51.994;5.880;2022-10-23T06:35:46;8.57;;;5.10;;
55710;SDS011;41612;51.994;5.880;2022-10-23T06:38:13;4.72;;;3.10;;
55710;SDS011;41612;51.994;5.880;2022-10-23T06:40:51;8.68;;;5.68;;
55710;SDS011;41612;51.994;5.880;2022-10-23T06:43:24;5.28;;;3.13;;
55710;SDS011;41612;51.994;5.880;2022-10-23T06:46:12;12.45;;;5.75;;
55710;SDS011;41612;51.994;5.880;2022-10-23T06:49:04;11.50;;;6.13;;
55710;SDS011;41612;51.994;5.880;2022-10-23T06:51:34;10.73;;;5.53;;
55710;SDS011;41612;51.994;5.880;2022-10-23T06:54:01;15.77;;;7.40;;
55710;SDS011;41612;51.994;5.880;2022-10-23T06:56:46;10.57;;;5.90;;
55710;SDS011;41612;51.994;5.880;2022-10-23T06:59:15;4.82;;;3.10;;
55710;SDS011;41612;51.994;5.880;2022-10-23T07:01:41;8.07;;;5.13;;
55710;SDS011;41612;51.994;5.880;2022-10-23T07:04:10;13.48;;;5.13;;
55710;SDS011;41612;51.994;5.880;2022-10-23T07:06:38;5.50;;;3.53;;
55710;SDS011;41612;51.994;5.880;2022-10-23T07:09:05;11.02;;;4.68;;
55710;SDS011;41612;51.994;5.880;2022-10-23T07:11:49;7.57;;;3.60;;
55710;SDS011;41612;51.994;5.880;2022-10-23T07:14:16;10.48;;;5.38;;
55710;SDS011;41612;51.994;5.880;2022-10-23T07:16:42;9.35;;;4.63;;
55710;SDS011;41612;51.994;5.880;2022-10-23T07:19:09;14.15;;;5.75;;
55710;SDS011;41612;51.994;5.880;2022-10-23T07:21:37;8.05;;;5.13;;
55710;SDS011;41612;51.994;5.880;2022-10-23T07:24:38;8.43;;;5.45;;
55710;SDS011;41612;51.994;5.880;2022-10-23T07:27:15;10.23;;;4.88;;
55710;SDS011;41612;51.994;5.880;2022-10-23T07:29:41;9.73;;;4.90;;
55710;SDS011;41612;51.994;5.880;2022-10-23T07:32:07;11.40;;;5.35;;
55710;SDS011;41612;51.994;5.880;2022-10-23T07:34:33;9.88;;;4.93;;
55710;SDS011;41612;51.994;5.880;2022-10-23T07:37:21;7.45;;;4.10;;
55710;SDS011;41612;51.994;5.880;2022-10-23T07:39:47;14.68;;;5.93;;
55710;SDS011;41612;51.994;5.880;2022-10-23T07:42:12;6.60;;;3.40;;
55710;SDS011;41612;51.994;5.880;2022-10-23T07:44:39;10.45;;;4.80;;
55710;SDS011;41612;51.994;5.880;2022-10-23T07:47:05;11.35;;;4.70;;
55710;SDS011;41612;51.994;5.880;2022-10-23T07:49:31;10.60;;;4.85;;
55710;SDS011;41612;51.994;5.880;2022-10-23T07:51:57;9.45;;;5.88;;
55710;SDS011;41612;51.994;5.880;2022-10-23T07:54:29;10.50;;;5.35;;
55710;SDS011;41612;51.994;5.880;2022-10-23T07:57:13;9.70;;;5.45;;
55710;SDS011;41612;51.994;5.880;2022-10-23T07:59:44;8.98;;;4.35;;
55710;SDS011;41612;51.994;5.880;2022-10-23T08:02:14;6.55;;;4.38;;
55710;SDS011;41612;51.994;5.880;2022-10-23T08:04:41;16.83;;;4.63;;
55710;SDS011;41612;51.994;5.880;2022-10-23T08:07:22;8.43;;;4.32;;
55710;SDS011;41612;51.994;5.880;2022-10-23T08:09:49;7.47;;;4.15;;
55710;SDS011;41612;51.994;5.880;2022-10-23T08:12:15;10.65;;;5.88;;
55710;SDS011;41612;51.994;5.880;2022-10-23T08:14:41;8.10;;;5.88;;
55710;SDS011;41612;51.994;5.880;2022-10-23T08:17:07;11.73;;;6.20;;
55710;SDS011;41612;51.994;5.880;2022-10-23T08:19:52;13.23;;;6.00;;
55710;SDS011;41612;51.994;5.880;2022-10-23T08:22:18;11.25;;;5.50;;
55710;SDS011;41612;51.994;5.880;2022-10-23T08:24:45;10.55;;;4.05;;
55710;SDS011;41612;51.994;5.880;2022-10-23T08:27:11;9.88;;;5.55;;
55710;SDS011;41612;51.994;5.880;2022-10-23T08:29:42;10.00;;;5.20;;
55710;SDS011;41612;51.994;5.880;2022-10-23T08:32:08;9.35;;;5.13;;
55710;SDS011;41612;51.994;5.880;2022-10-23T08:34:46;12.10;;;5.00;;
55710;SDS011;41612;51.994;5.880;2022-10-23T08:37:11;8.82;;;4.90;;
55710;SDS011;41612;51.994;5.880;2022-10-23T08:39:37;6.88;;;3.33;;
55710;SDS011;41612;51.994;5.880;2022-10-23T08:42:19;13.18;;;5.70;;
55710;SDS011;41612;51.994;5.880;2022-10-23T08:45:04;5.20;;;2.80;;
55710;SDS011;41612;51.994;5.880;2022-10-23T08:55:52;10.15;;;5.75;;
55710;SDS011;41612;51.994;5.880;2022-10-23T08:58:47;11.38;;;4.63;;
55710;SDS011;41612;51.994;5.880;2022-10-23T09:03:58;11.35;;;5.43;;
55710;SDS011;41612;51.994;5.880;2022-10-23T09:15:13;7.75;;;4.60;;
55710;SDS011;41612;51.994;5.880;2022-10-23T09:17:30;9.13;;;5.00;;
55710;SDS011;41612;51.994;5.880;2022-10-23T09:22:56;11.18;;;5.05;;
55710;SDS011;41612;51.994;5.880;2022-10-23T09:25:25;8.35;;;4.47;;
55710;SDS011;41612;51.994;5.880;2022-10-23T09:27:56;7.30;;;3.58;;
55710;SDS011;41612;51.994;5.880;2022-10-23T09:30:35;8.30;;;5.20;;
55710;SDS011;41612;51.994;5.880;2022-10-23T09:33:14;15.07;;;5.70;;
55710;SDS011;41612;51.994;5.880;2022-10-23T09:35:51;9.32;;;4.80;;
55710;SDS011;41612;51.994;5.880;2022-10-23T09:38:27;10.88;;;5.07;;
55710;SDS011;41612;51.994;5.880;2022-10-23T09:41:01;8.82;;;4.97;;
55710;SDS011;41612;51.994;5.880;2022-10-23T09:46:40;11.50;;;4.88;;
55710;SDS011;41612;51.994;5.880;2022-10-23T09:52:01;8.50;;;4.95;;
55710;SDS011;41612;51.994;5.880;2022-10-23T09:54:59;15.13;;;5.25;;
55710;SDS011;41612;51.994;5.880;2022-10-23T09:57:41;10.00;;;4.88;;
55710;SDS011;41612;51.994;5.880;2022-10-23T10:00:19;11.55;;;4.80;;
55710;SDS011;41612;51.994;5.880;2022-10-23T10:03:02;8.32;;;4.47;;
55710;SDS011;41612;51.994;5.880;2022-10-23T10:05:37;10.23;;;5.30;;
55710;SDS011;41612;51.994;5.880;2022-10-23T10:10:49;12.32;;;5.03;;
55710;SDS011;41612;51.994;5.880;2022-10-23T10:13:29;10.30;;;5.00;;
55710;SDS011;41612;51.994;5.880;2022-10-23T10:16:22;10.07;;;4.70;;
55710;SDS011;41612;51.994;5.880;2022-10-23T10:19:19;6.90;;;3.03;;
55710;SDS011;41612;51.994;5.880;2022-10-23T10:24:59;11.05;;;4.78;;
55710;SDS011;41612;51.994;5.880;2022-10-23T10:32:49;6.32;;;3.90;;
55710;SDS011;41612;51.994;5.880;2022-10-23T10:40:59;8.90;;;3.45;;
55710;SDS011;41612;51.994;5.880;2022-10-23T10:43:42;8.68;;;3.95;;
55710;SDS011;41612;51.994;5.880;2022-10-23T10:46:39;7.95;;;4.60;;
55710;SDS011;41612;51.994;5.880;2022-10-23T10:49:12;7.55;;;4.07;;
55710;SDS011;41612;51.994;5.880;2022-10-23T10:54:45;6.00;;;2.97;;
55710;SDS011;41612;51.994;5.880;2022-10-23T10:57:31;6.20;;;3.65;;
55710;SDS011;41612;51.994;5.880;2022-10-23T11:13:33;7.32;;;3.75;;
55710;SDS011;41612;51.994;5.880;2022-10-23T11:16:35;10.13;;;4.20;;
55710;SDS011;41612;51.994;5.880;2022-10-23T11:21:51;7.65;;;3.60;;
55710;SDS011;41612;51.994;5.880;2022-10-23T11:30:12;9.45;;;4.13;;
55710;SDS011;41612;51.994;5.880;2022-10-23T11:38:33;11.43;;;3.75;;
55710;SDS011;41612;51.994;5.880;2022-10-23T11:41:24;10.25;;;3.70;;
55710;SDS011;41612;51.994;5.880;2022-10-23T11:43:58;7.70;;;3.83;;
55710;SDS011;41612;51.994;5.880;2022-10-23T11:46:37;14.20;;;4.40;;
55710;SDS011;41612;51.994;5.880;2022-10-23T11:51:37;15.07;;;4.38;;
55710;SDS011;41612;51.994;5.880;2022-10-23T11:54:04;6.03;;;2.80;;
55710;SDS011;41612;51.994;5.880;2022-10-23T11:56:31;4.85;;;2.50;;
55710;SDS011;41612;51.994;5.880;2022-10-23T11:58:58;8.50;;;3.72;;
55710;SDS011;41612;51.994;5.880;2022-10-23T12:01:45;5.90;;;3.50;;
55710;SDS011;41612;51.994;5.880;2022-10-23T12:19:49;10.10;;;3.75;;
55710;SDS011;41612;51.994;5.880;2022-10-23T12:22:17;7.18;;;3.75;;
55710;SDS011;41612;51.994;5.880;2022-10-23T12:32:58;6.85;;;3.63;;
55710;SDS011;41612;51.994;5.880;2022-10-23T12:36:00;8.00;;;3.10;;
55710;SDS011;41612;51.994;5.880;2022-10-23T12:38:44;6.55;;;2.90;;
55710;SDS011;41612;51.994;5.880;2022-10-23T12:43:52;8.77;;;3.75;;
55710;SDS011;41612;51.994;5.880;2022-10-23T12:46:30;7.13;;;3.30;;
55710;SDS011;41612;51.994;5.880;2022-10-23T12:49:21;7.63;;;3.60;;
55710;SDS011;41612;51.994;5.880;2022-10-23T12:51:59;9.77;;;3.25;;
55710;SDS011;41612;51.994;5.880;2022-10-23T12:54:45;6.57;;;2.90;;
55710;SDS011;41612;51.994;5.880;2022-10-23T12:57:26;8.65;;;3.45;;
55710;SDS011;41612;51.994;5.880;2022-10-23T12:59:55;7.88;;;3.40;;
55710;SDS011;41612;51.994;5.880;2022-10-23T13:02:28;9.90;;;3.45;;
55710;SDS011;41612;51.994;5.880;2022-10-23T13:04:56;9.20;;;3.20;;
55710;SDS011;41612;51.994;5.880;2022-10-23T13:07:25;7.57;;;2.80;;
55710;SDS011;41612;51.994;5.880;2022-10-23T13:09:59;6.97;;;2.80;;
55710;SDS011;41612;51.994;5.880;2022-10-23T13:13:11;13.02;;;4.28;;
55710;SDS011;41612;51.994;5.880;2022-10-23T13:15:42;8.20;;;3.13;;
55710;SDS011;41612;51.994;5.880;2022-10-23T13:18:10;6.57;;;3.05;;
55710;SDS011;41612;51.994;5.880;2022-10-23T13:20:41;7.47;;;3.40;;
55710;SDS011;41612;51.994;5.880;2022-10-23T13:23:17;7.32;;;3.28;;
55710;SDS011;41612;51.994;5.880;2022-10-23T13:38:44;7.45;;;4.00;;
55710;SDS011;41612;51.994;5.880;2022-10-23T13:41:38;7.40;;;2.78;;
55710;SDS011;41612;51.994;5.880;2022-10-23T13:44:14;6.88;;;3.20;;
55710;SDS011;41612;51.994;5.880;2022-10-23T13:46:42;6.88;;;3.10;;
55710;SDS011;41612;51.994;5.880;2022-10-23T13:49:07;7.05;;;3.22;;
55710;SDS011;41612;51.994;5.880;2022-10-23T13:51:35;9.90;;;3.38;;
55710;SDS011;41612;51.994;5.880;2022-10-23T13:54:13;7.57;;;2.95;;
55710;SDS011;41612;51.994;5.880;2022-10-23T13:56:47;12.48;;;3.38;;
55710;SDS011;41612;51.994;5.880;2022-10-23T13:59:20;10.50;;;2.97;;
55710;SDS011;41612;51.994;5.880;2022-10-23T14:01:50;5.25;;;2.50;;
55710;SDS011;41612;51.994;5.880;2022-10-23T14:04:20;4.20;;;2.60;;
55710;SDS011;41612;51.994;5.880;2022-10-23T14:06:50;6.13;;;2.50;;
55710;SDS011;41612;51.994;5.880;2022-10-23T14:09:22;5.93;;;2.85;;
55710;SDS011;41612;51.994;5.880;2022-10-23T14:11:50;5.95;;;2.97;;
55710;SDS011;41612;51.994;5.880;2022-10-23T14:14:19;4.50;;;2.20;;
55710;SDS011;41612;51.994;5.880;2022-10-23T14:16:45;5.57;;;2.20;;
55710;SDS011;41612;51.994;5.880;2022-10-23T14:19:11;8.05;;;2.80;;
55710;SDS011;41612;51.994;5.880;2022-10-23T14:21:37;10.00;;;2.75;;
55710;SDS011;41612;51.994;5.880;2022-10-23T14:24:02;4.80;;;2.20;;
55710;SDS011;41612;51.994;5.880;2022-10-23T14:26:28;7.32;;;2.53;;
55710;SDS011;41612;51.994;5.880;2022-10-23T14:28:57;4.53;;;2.05;;
55710;SDS011;41612;51.994;5.880;2022-10-23T14:31:26;8.65;;;2.70;;
55710;SDS011;41612;51.994;5.880;2022-10-23T14:33:54;13.10;;;2.75;;
55710;SDS011;41612;51.994;5.880;2022-10-23T16:57:03;9.18;;;3.58;;
55710;SDS011;41612;51.994;5.880;2022-10-23T16:59:29;6.93;;;4.10;;
55710;SDS011;41612;51.994;5.880;2022-10-23T17:01:55;7.18;;;3.58;;
55710;SDS011;41612;51.994;5.880;2022-10-23T17:04:20;7.75;;;3.97;;
55710;SDS011;41612;51.994;5.880;2022-10-23T17:06:46;10.25;;;3.90;;
55710;SDS011;41612;51.994;5.880;2022-10-23T17:09:12;7.55;;;3.70;;
55710;SDS011;41612;51.994;5.880;2022-10-23T17:11:38;6.38;;;3.78;;
55710;SDS011;41612;51.994;5.880;2022-10-23T17:14:05;6.15;;;3.90;;
55710;SDS011;41612;51.994;5.880;2022-10-23T17:16:37;6.60;;;2.95;;
55710;SDS011;41612;51.994;5.880;2022-10-23T17:19:05;6.60;;;3.50;;
55710;SDS011;41612;51.994;5.880;2022-10-23T17:21:33;5.78;;;3.88;;
55710;SDS011;41612;51.994;5.880;2022-10-23T17:24:02;9.25;;;4.63;;
55710;SDS011;41612;51.994;5.880;2022-10-23T17:26:28;5.80;;;3.55;;
55710;SDS011;41612;51.994;5.880;2022-10-23T17:28:55;7.82;;;4.10;;
55710;SDS011;41612;51.994;5.880;2022-10-23T17:31:29;8.85;;;3.33;;
55710;SDS011;41612;51.994;5.880;2022-10-23T17:33:58;6.30;;;3.60;;
55710;SDS011;41612;51.994;5.880;2022-10-23T17:36:30;5.50;;;3.40;;
55710;SDS011;41612;51.994;5.880;2022-10-23T17:38:58;8.75;;;3.30;;
55710;SDS011;41612;51.994;5.880;2022-10-23T17:41:26;9.73;;;3.65;;
55710;SDS011;41612;51.994;5.880;2022-10-23T17:43:55;11.35;;;3.90;;
55710;SDS011;41612;51.994;5.880;2022-10-23T17:46:22;8.30;;;3.88;;
55710;SDS011;41612;51.994;5.880;2022-10-23T17:48:48;7.15;;;3.33;;
55710;SDS011;41612;51.994;5.880;2022-10-23T19:37:50;8.45;;;2.78;;
55710;SDS011;41612;51.994;5.880;2022-10-23T19:40:16;8.23;;;2.53;;
55710;SDS011;41612;51.994;5.880;2022-10-23T19:42:45;6.95;;;2.70;;
55710;SDS011;41612;51.994;5.880;2022-10-23T19:45:12;6.88;;;3.50;;
55710;SDS011;41612;51.994;5.880;2022-10-23T19:47:38;5.53;;;2.72;;
55710;SDS011;41612;51.994;5.880;2022-10-23T19:50:05;6.72;;;3.45;;
55710;SDS011;41612;51.994;5.880;2022-10-23T19:52:32;7.97;;;3.10;;
55710;SDS011;41612;51.994;5.880;2022-10-23T19:54:58;8.82;;;2.97;;
55710;SDS011;41612;51.994;5.880;2022-10-23T19:57:24;7.97;;;2.90;;
55710;SDS011;41612;51.994;5.880;2022-10-23T19:59:50;10.15;;;4.03;;
55710;SDS011;41612;51.994;5.880;2022-10-23T20:02:17;6.57;;;3.35;;
55710;SDS011;41612;51.994;5.880;2022-10-23T20:04:43;5.75;;;2.92;;
55710;SDS011;41612;51.994;5.880;2022-10-23T20:07:09;7.50;;;3.95;;
55710;SDS011;41612;51.994;5.880;2022-10-23T20:09:35;13.32;;;3.15;;
55710;SDS011;41612;51.994;5.880;2022-10-23T20:12:03;4.97;;;2.35;;
55710;SDS011;41612;51.994;5.880;2022-10-23T20:14:29;7.00;;;2.50;;
55710;SDS011;41612;51.994;5.880;2022-10-23T20:16:55;7.00;;;2.92;;
55710;SDS011;41612;51.994;5.880;2022-10-23T20:19:21;10.65;;;2.67;;
55710;SDS011;41612;51.994;5.880;2022-10-23T20:21:47;5.55;;;2.42;;
55710;SDS011;41612;51.994;5.880;2022-10-23T20:24:14;11.07;;;2.85;;
55710;SDS011;41612;51.994;5.880;2022-10-23T20:26:44;5.35;;;2.33;;
55710;SDS011;41612;51.994;5.880;2022-10-23T20:29:12;6.68;;;2.55;;
55710;SDS011;41612;51.994;5.880;2022-10-23T20:31:38;4.90;;;2.75;;
55710;SDS011;41612;51.994;5.880;2022-10-23T20:34:05;7.28;;;2.40;;
55710;SDS011;41612;51.994;5.880;2022-10-23T20:36:32;5.22;;;2.45;;
55710;SDS011;41612;51.994;5.880;2022-10-23T20:39:06;6.00;;;1.70;;
55710;SDS011;41612;51.994;5.880;2022-10-23T20:41:40;3.50;;;1.70;;
55710;SDS011;41612;51.994;5.880;2022-10-23T20:44:09;2.92;;;1.60;;
55710;SDS011;41612;51.994;5.880;2022-10-23T20:46:36;4.70;;;1.80;;
55710;SDS011;41612;51.994;5.880;2022-10-23T20:49:03;4.78;;;1.85;;
55710;SDS011;41612;51.994;5.880;2022-10-23T20:51:29;5.13;;;1.90;;
55710;SDS011;41612;51.994;5.880;2022-10-23T20:53:54;3.35;;;1.60;;
55710;SDS011;41612;51.994;5.880;2022-10-23T20:56:22;4.50;;;1.80;;
55710;SDS011;41612;51.994;5.880;2022-10-23T20:58:59;5.38;;;1.45;;
55710;SDS011;41612;51.994;5.880;2022-10-23T21:01:26;3.13;;;1.02;;
55710;SDS011;41612;51.994;5.880;2022-10-23T21:03:53;3.45;;;1.23;;
55710;SDS011;41612;51.994;5.880;2022-10-23T21:06:21;6.95;;;1.27;;
55710;SDS011;41612;51.994;5.880;2022-10-23T21:08:47;7.07;;;2.08;;
55710;SDS011;41612;51.994;5.880;2022-10-23T21:11:14;5.78;;;1.35;;
55710;SDS011;41612;51.994;5.880;2022-10-23T21:13:41;3.90;;;1.40;;
55710;SDS011;41612;51.994;5.880;2022-10-23T21:16:15;4.22;;;1.45;;
55710;SDS011;41612;51.994;5.880;2022-10-23T21:18:43;3.47;;;0.90;;
55710;SDS011;41612;51.994;5.880;2022-10-23T21:21:08;4.03;;;1.58;;
55710;SDS011;41612;51.994;5.880;2022-10-23T21:23:35;3.90;;;1.42;;
55710;SDS011;41612;51.994;5.880;2022-10-23T21:26:02;4.43;;;1.40;;
55710;SDS011;41612;51.994;5.880;2022-10-23T21:28:29;4.40;;;1.60;;
55710;SDS011;41612;51.994;5.880;2022-10-23T21:31:04;7.47;;;1.38;;
55710;SDS011;41612;51.994;5.880;2022-10-23T21:33:32;6.50;;;1.60;;
55710;SDS011;41612;51.994;5.880;2022-10-23T21:35:58;5.50;;;1.48;;
55710;SDS011;41612;51.994;5.880;2022-10-23T21:38:24;2.67;;;1.20;;
55710;SDS011;41612;51.994;5.880;2022-10-23T21:40:50;7.57;;;1.58;;